CST,Max TemperatureF,Mean TemperatureF,Min TemperatureF,Max Dew PointF,MeanDew PointF,Min DewpointF,Max Humidity, Mean Humidity, Min Humidity, Max Sea Level PressureIn, Mean Sea Level PressureIn, Min Sea Level PressureIn, Max VisibilityMiles, Mean VisibilityMiles, Min VisibilityMiles, Max Wind SpeedMPH, Mean Wind SpeedMPH, Max Gust SpeedMPH,PrecipitationIn, CloudCover, Events, WindDirDegrees
2013-1-1,12,3,-7,7,-2,-9,87,72,57,30.28,30.19,30.06,10,10,10,16,7,20,T,3,,293
2013-1-2,20,16,12,12,9,6,88,75,62,30.11,30.04,29.96,10,10,8,13,6,15,T,7,,187
2013-1-3,21,15,9,15,12,4,84,79,74,30.18,30.10,29.97,10,6,2,18,10,24,T,7,Snow,277
2013-1-4,28,18,8,16,10,3,91,77,63,30.19,30.07,29.94,10,10,8,16,6,21,0.00,2,,258
2013-1-5,30,16,3,21,11,0,100,80,59,30.19,30.01,29.82,10,7,1,13,3,,0.00,2,,181
2013-1-6,29,21,12,21,18,9,96,80,63,30.23,30.04,29.84,10,8,2,13,6,16,T,6,Snow,299
2013-1-7,36,23,10,23,17,7,88,72,56,30.19,30.02,29.93,10,10,8,16,9,26,0.00,0,,207
2013-1-8,36,25,14,29,20,10,100,86,67,30.09,29.98,29.84,10,5,0,17,4,23,0.00,3,Fog,149
2013-1-9,35,27,19,29,22,16,85,71,56,30.43,30.12,29.83,10,10,8,28,13,37,0.00,2,,266
2013-1-10,37,27,16,33,22,14,96,72,47,30.48,30.25,29.89,10,8,3,18,8,23,0.23,3,Rain,120
2013-1-11,42,38,33,43,36,33,100,96,92,29.84,29.64,29.47,7,2,0,17,7,23,0.04,8,Fog-Rain,148
2013-1-12,44,29,14,41,25,5,100,84,67,30.02,29.71,29.45,10,9,4,28,15,41,T,8,,236
2013-1-13,16,11,5,8,4,0,76,71,66,30.22,30.05,29.97,10,9,4,17,10,22,T,7,Snow,290
2013-1-14,16,9,2,7,3,-2,87,74,61,30.43,30.35,30.13,10,9,2,16,7,21,T,4,Snow,254
2013-1-15,28,16,3,13,8,-1,88,69,50,30.40,30.23,30.01,10,9,6,18,7,24,0.00,2,,192
2013-1-16,31,24,16,25,16,5,85,70,55,30.12,29.81,29.62,10,8,2,21,11,29,0.01,6,Snow,267
2013-1-17,16,10,3,4,-1,-5,83,68,52,30.41,30.33,30.16,10,10,10,17,8,21,0.00,2,,299
2013-1-18,37,20,3,28,14,0,86,75,64,30.39,30.02,29.76,10,7,1,16,7,22,0.08,5,Snow,177
2013-1-19,40,23,6,30,19,-4,92,74,56,29.96,29.70,29.53,10,8,1,40,13,49,T,6,Snow,266
2013-1-20,9,4,-2,-6,-8,-9,71,61,50,30.31,30.20,29.93,10,10,10,31,13,40,0.00,3,,293
2013-1-21,0,-5,-11,-7,-16,-21,72,60,47,30.31,30.19,30.05,10,10,8,21,13,26,0.00,4,,294
2013-1-22,-1,-7,-14,-13,-17,-20,77,64,51,30.38,30.34,30.29,10,10,10,13,8,16,0.00,0,,286
2013-1-23,14,2,-10,7,-3,-14,79,70,61,30.51,30.17,29.99,10,8,0,21,7,29,T,6,Snow,298
2013-1-24,10,2,-7,3,-5,-12,83,69,55,30.71,30.53,30.28,10,8,1,12,5,15,0.02,3,Snow,146
2013-1-25,18,12,6,12,9,2,92,80,67,30.31,30.02,29.86,10,4,0,13,8,18,0.10,7,Fog-Snow,228
2013-1-26,23,11,-1,10,4,-3,95,76,56,30.41,30.34,30.26,10,10,10,16,6,21,0.00,2,,230
2013-1-27,31,25,19,30,21,11,100,79,58,30.30,30.05,29.83,10,5,0,13,8,20,0.42,8,Fog-Rain-Snow,129
2013-1-28,33,32,30,30,29,27,100,89,78,29.94,29.84,29.75,10,6,2,13,6,16,T,8,Rain-Snow,159
2013-1-29,38,35,31,37,32,28,100,91,82,29.75,29.58,29.49,10,5,0,21,8,26,0.50,8,Fog-Rain,99
2013-1-30,33,23,13,28,17,5,88,81,73,29.58,29.43,29.34,10,3,0,21,12,31,0.30,8,Fog-Snow,332
2013-1-31,13,6,-1,4,0,-7,80,72,63,30.12,29.81,29.54,10,8,2,22,14,26,T,7,Snow,287